sensor_id;sensor_type;location;lat;lon;timestamp;temperature;humidity
21108;DHT22;10712;52.944;9.098;2022-07-01T00:00:04;20.50;86.30
21108;DHT22;10712;52.944;9.098;2022-07-01T00:02:38;20.40;86.60
21108;DHT22;10712;52.944;9.098;2022-07-01T00:05:05;20.40;86.60
21108;DHT22;10712;52.944;9.098;2022-07-01T00:07:46;20.40;86.60
21108;DHT22;10712;52.944;9.098;2022-07-01T00:10:12;20.30;86.70
21108;DHT22;10712;52.944;9.098;2022-07-01T00:12:39;20.30;86.90
21108;DHT22;10712;52.944;9.098;2022-07-01T00:15:05;20.30;87.10
21108;DHT22;10712;52.944;9.098;2022-07-01T00:17:31;20.30;87.10
21108;DHT22;10712;52.944;9.098;2022-07-01T00:19:57;20.20;87.10
21108;DHT22;10712;52.944;9.098;2022-07-01T00:22:23;20.20;87.10
21108;DHT22;10712;52.944;9.098;2022-07-01T00:24:49;20.20;86.90
21108;DHT22;10712;52.944;9.098;2022-07-01T00:27:15;20.10;87.10
21108;DHT22;10712;52.944;9.098;2022-07-01T00:29:41;20.10;87.20
21108;DHT22;10712;52.944;9.098;2022-07-01T00:32:07;20.10;87.30
21108;DHT22;10712;52.944;9.098;2022-07-01T00:34:33;20.00;87.50
21108;DHT22;10712;52.944;9.098;2022-07-01T00:36:59;20.00;87.40
21108;DHT22;10712;52.944;9.098;2022-07-01T00:39:25;20.00;87.20
21108;DHT22;10712;52.944;9.098;2022-07-01T00:41:51;20.00;87.30
21108;DHT22;10712;52.944;9.098;2022-07-01T00:44:18;19.90;87.40
21108;DHT22;10712;52.944;9.098;2022-07-01T00:46:45;19.90;87.60
21108;DHT22;10712;52.944;9.098;2022-07-01T00:49:13;19.90;88.00
21108;DHT22;10712;52.944;9.098;2022-07-01T00:51:39;19.90;88.00
21108;DHT22;10712;52.944;9.098;2022-07-01T00:54:04;19.90;88.00
21108;DHT22;10712;52.944;9.098;2022-07-01T00:56:31;19.90;88.00
21108;DHT22;10712;52.944;9.098;2022-07-01T00:58:57;19.90;87.90
21108;DHT22;10712;52.944;9.098;2022-07-01T01:01:23;19.90;87.60
21108;DHT22;10712;52.944;9.098;2022-07-01T01:03:49;19.90;87.40
21108;DHT22;10712;52.944;9.098;2022-07-01T01:06:15;19.80;87.20
21108;DHT22;10712;52.944;9.098;2022-07-01T01:08:42;19.70;87.30
21108;DHT22;10712;52.944;9.098;2022-07-01T01:11:08;19.60;87.20
21108;DHT22;10712;52.944;9.098;2022-07-01T01:13:34;19.60;87.40
21108;DHT22;10712;52.944;9.098;2022-07-01T01:16:00;19.50;87.10
21108;DHT22;10712;52.944;9.098;2022-07-01T01:18:26;19.50;87.20
21108;DHT22;10712;52.944;9.098;2022-07-01T01:20:53;19.40;87.20
21108;DHT22;10712;52.944;9.098;2022-07-01T01:23:19;19.30;87.30
21108;DHT22;10712;52.944;9.098;2022-07-01T01:25:47;19.30;87.70
21108;DHT22;10712;52.944;9.098;2022-07-01T01:28:13;19.20;87.50
21108;DHT22;10712;52.944;9.098;2022-07-01T01:30:40;19.20;87.80
21108;DHT22;10712;52.944;9.098;2022-07-01T01:33:06;19.20;87.80
21108;DHT22;10712;52.944;9.098;2022-07-01T01:35:38;19.10;87.90
21108;DHT22;10712;52.944;9.098;2022-07-01T01:38:04;19.10;88.00
21108;DHT22;10712;52.944;9.098;2022-07-01T01:40:30;19.10;88.00
21108;DHT22;10712;52.944;9.098;2022-07-01T01:42:56;19.10;88.00
21108;DHT22;10712;52.944;9.098;2022-07-01T01:45:23;19.10;88.00
21108;DHT22;10712;52.944;9.098;2022-07-01T01:47:49;19.10;88.00
21108;DHT22;10712;52.944;9.098;2022-07-01T01:50:15;19.20;87.80
21108;DHT22;10712;52.944;9.098;2022-07-01T01:52:41;19.20;87.70
21108;DHT22;10712;52.944;9.098;2022-07-01T01:55:09;19.20;87.70
21108;DHT22;10712;52.944;9.098;2022-07-01T01:57:36;19.10;87.70
21108;DHT22;10712;52.944;9.098;2022-07-01T02:00:02;19.10;87.60
21108;DHT22;10712;52.944;9.098;2022-07-01T02:02:37;19.00;87.80
21108;DHT22;10712;52.944;9.098;2022-07-01T02:05:08;18.90;88.10
21108;DHT22;10712;52.944;9.098;2022-07-01T02:07:36;18.80;88.30
21108;DHT22;10712;52.944;9.098;2022-07-01T02:10:03;18.80;88.20
21108;DHT22;10712;52.944;9.098;2022-07-01T02:12:29;18.80;88.40
21108;DHT22;10712;52.944;9.098;2022-07-01T02:14:55;18.70;88.60
21108;DHT22;10712;52.944;9.098;2022-07-01T02:17:21;18.70;88.60
21108;DHT22;10712;52.944;9.098;2022-07-01T02:19:47;18.60;88.50
21108;DHT22;10712;52.944;9.098;2022-07-01T02:22:12;18.60;88.70
21108;DHT22;10712;52.944;9.098;2022-07-01T02:24:38;18.60;88.30
21108;DHT22;10712;52.944;9.098;2022-07-01T02:27:04;18.50;88.30
21108;DHT22;10712;52.944;9.098;2022-07-01T02:29:30;18.50;88.30
21108;DHT22;10712;52.944;9.098;2022-07-01T02:31:56;18.50;88.20
21108;DHT22;10712;52.944;9.098;2022-07-01T02:34:22;18.40;88.00
21108;DHT22;10712;52.944;9.098;2022-07-01T02:36:48;18.30;88.10
21108;DHT22;10712;52.944;9.098;2022-07-01T02:39:14;18.20;88.10
21108;DHT22;10712;52.944;9.098;2022-07-01T02:41:39;18.20;88.40
21108;DHT22;10712;52.944;9.098;2022-07-01T02:44:24;18.10;88.80
21108;DHT22;10712;52.944;9.098;2022-07-01T02:46:50;18.00;89.00
21108;DHT22;10712;52.944;9.098;2022-07-01T02:49:15;18.00;89.00
21108;DHT22;10712;52.944;9.098;2022-07-01T02:51:42;18.00;89.00
21108;DHT22;10712;52.944;9.098;2022-07-01T02:54:07;18.00;89.00
21108;DHT22;10712;52.944;9.098;2022-07-01T02:56:33;18.00;88.60
21108;DHT22;10712;52.944;9.098;2022-07-01T02:58:59;17.90;88.60
21108;DHT22;10712;52.944;9.098;2022-07-01T03:01:25;17.90;88.60
21108;DHT22;10712;52.944;9.098;2022-07-01T03:03:51;17.90;88.50
21108;DHT22;10712;52.944;9.098;2022-07-01T03:06:18;17.80;88.50
21108;DHT22;10712;52.944;9.098;2022-07-01T03:08:44;17.80;88.40
21108;DHT22;10712;52.944;9.098;2022-07-01T03:11:10;17.80;87.90
21108;DHT22;10712;52.944;9.098;2022-07-01T03:13:36;17.70;87.90
21108;DHT22;10712;52.944;9.098;2022-07-01T03:16:02;17.60;88.00
21108;DHT22;10712;52.944;9.098;2022-07-01T03:18:28;17.60;88.30
21108;DHT22;10712;52.944;9.098;2022-07-01T03:20:54;17.60;88.00
21108;DHT22;10712;52.944;9.098;2022-07-01T03:23:20;17.60;88.00
21108;DHT22;10712;52.944;9.098;2022-07-01T03:25:45;17.60;88.20
21108;DHT22;10712;52.944;9.098;2022-07-01T03:28:11;17.50;88.30
21108;DHT22;10712;52.944;9.098;2022-07-01T03:30:37;17.50;88.30
21108;DHT22;10712;52.944;9.098;2022-07-01T03:33:03;17.50;88.10
21108;DHT22;10712;52.944;9.098;2022-07-01T03:35:32;17.50;88.40
21108;DHT22;10712;52.944;9.098;2022-07-01T03:38:02;17.40;87.90
21108;DHT22;10712;52.944;9.098;2022-07-01T03:40:30;17.40;88.30
21108;DHT22;10712;52.944;9.098;2022-07-01T03:43:00;17.30;88.40
21108;DHT22;10712;52.944;9.098;2022-07-01T03:45:26;17.40;88.40
21108;DHT22;10712;52.944;9.098;2022-07-01T03:47:52;17.40;87.70
21108;DHT22;10712;52.944;9.098;2022-07-01T03:50:20;17.40;87.60
21108;DHT22;10712;52.944;9.098;2022-07-01T03:52:47;17.30;87.60
21108;DHT22;10712;52.944;9.098;2022-07-01T03:55:13;17.30;87.90
21108;DHT22;10712;52.944;9.098;2022-07-01T03:57:40;17.30;88.00
21108;DHT22;10712;52.944;9.098;2022-07-01T04:00:06;17.30;88.00
21108;DHT22;10712;52.944;9.098;2022-07-01T04:02:33;17.30;88.00
21108;DHT22;10712;52.944;9.098;2022-07-01T04:04:59;17.30;87.50
21108;DHT22;10712;52.944;9.098;2022-07-01T04:07:26;17.20;87.80
21108;DHT22;10712;52.944;9.098;2022-07-01T04:09:52;17.10;88.00
21108;DHT22;10712;52.944;9.098;2022-07-01T04:12:18;17.10;88.10
21108;DHT22;10712;52.944;9.098;2022-07-01T04:14:45;17.10;87.70
21108;DHT22;10712;52.944;9.098;2022-07-01T04:17:11;17.10;87.60
21108;DHT22;10712;52.944;9.098;2022-07-01T04:19:37;17.00;87.70
21108;DHT22;10712;52.944;9.098;2022-07-01T04:22:03;16.90;88.10
21108;DHT22;10712;52.944;9.098;2022-07-01T04:24:48;16.90;88.40
21108;DHT22;10712;52.944;9.098;2022-07-01T04:27:14;16.90;88.40
21108;DHT22;10712;52.944;9.098;2022-07-01T04:29:39;16.80;88.60
21108;DHT22;10712;52.944;9.098;2022-07-01T04:32:06;16.80;88.40
21108;DHT22;10712;52.944;9.098;2022-07-01T04:34:32;16.70;88.30
21108;DHT22;10712;52.944;9.098;2022-07-01T04:36:58;16.70;88.60
21108;DHT22;10712;52.944;9.098;2022-07-01T04:39:24;16.70;88.80
21108;DHT22;10712;52.944;9.098;2022-07-01T04:41:50;16.70;89.00
21108;DHT22;10712;52.944;9.098;2022-07-01T04:44:25;16.70;88.80
21108;DHT22;10712;52.944;9.098;2022-07-01T04:46:52;16.70;88.80
21108;DHT22;10712;52.944;9.098;2022-07-01T04:49:18;16.70;88.80
21108;DHT22;10712;52.944;9.098;2022-07-01T04:51:44;16.60;88.70
21108;DHT22;10712;52.944;9.098;2022-07-01T04:54:10;16.60;88.70
21108;DHT22;10712;52.944;9.098;2022-07-01T04:56:37;16.60;88.90
21108;DHT22;10712;52.944;9.098;2022-07-01T04:59:03;16.60;88.90
21108;DHT22;10712;52.944;9.098;2022-07-01T05:01:30;16.70;88.80
21108;DHT22;10712;52.944;9.098;2022-07-01T05:03:56;16.70;88.40
21108;DHT22;10712;52.944;9.098;2022-07-01T05:06:23;16.70;88.30
21108;DHT22;10712;52.944;9.098;2022-07-01T05:08:50;16.70;88.50
21108;DHT22;10712;52.944;9.098;2022-07-01T05:11:16;16.70;88.70
21108;DHT22;10712;52.944;9.098;2022-07-01T05:13:42;16.80;88.70
21108;DHT22;10712;52.944;9.098;2022-07-01T05:16:08;16.80;88.70
21108;DHT22;10712;52.944;9.098;2022-07-01T05:18:36;16.80;88.70
21108;DHT22;10712;52.944;9.098;2022-07-01T05:21:22;16.90;88.50
21108;DHT22;10712;52.944;9.098;2022-07-01T05:24:06;16.90;88.60
21108;DHT22;10712;52.944;9.098;2022-07-01T05:26:33;16.90;88.40
21108;DHT22;10712;52.944;9.098;2022-07-01T05:28:59;16.80;88.40
21108;DHT22;10712;52.944;9.098;2022-07-01T05:31:25;16.80;88.50
21108;DHT22;10712;52.944;9.098;2022-07-01T05:33:51;16.80;88.70
21108;DHT22;10712;52.944;9.098;2022-07-01T05:36:18;16.80;88.90
21108;DHT22;10712;52.944;9.098;2022-07-01T05:38:44;16.70;88.80
21108;DHT22;10712;52.944;9.098;2022-07-01T05:41:11;16.70;89.00
21108;DHT22;10712;52.944;9.098;2022-07-01T05:43:37;16.70;89.30
21108;DHT22;10712;52.944;9.098;2022-07-01T05:46:02;16.70;89.30
21108;DHT22;10712;52.944;9.098;2022-07-01T05:48:28;16.70;89.20
21108;DHT22;10712;52.944;9.098;2022-07-01T05:50:54;16.70;89.40
21108;DHT22;10712;52.944;9.098;2022-07-01T05:53:20;16.70;89.50
21108;DHT22;10712;52.944;9.098;2022-07-01T05:55:47;16.70;89.30
21108;DHT22;10712;52.944;9.098;2022-07-01T05:58:14;16.70;88.50
21108;DHT22;10712;52.944;9.098;2022-07-01T06:00:40;16.60;88.80
21108;DHT22;10712;52.944;9.098;2022-07-01T06:03:11;16.60;89.00
21108;DHT22;10712;52.944;9.098;2022-07-01T06:05:39;16.70;89.00
21108;DHT22;10712;52.944;9.098;2022-07-01T06:08:06;16.70;88.50
21108;DHT22;10712;52.944;9.098;2022-07-01T06:10:35;16.70;88.50
21108;DHT22;10712;52.944;9.098;2022-07-01T06:13:02;16.80;88.40
21108;DHT22;10712;52.944;9.098;2022-07-01T06:15:29;16.80;88.20
21108;DHT22;10712;52.944;9.098;2022-07-01T06:17:56;16.80;88.70
21108;DHT22;10712;52.944;9.098;2022-07-01T06:20:22;16.80;88.80
21108;DHT22;10712;52.944;9.098;2022-07-01T06:22:48;16.80;88.80
21108;DHT22;10712;52.944;9.098;2022-07-01T06:25:14;16.80;89.00
21108;DHT22;10712;52.944;9.098;2022-07-01T06:27:42;16.80;89.00
21108;DHT22;10712;52.944;9.098;2022-07-01T06:30:10;16.80;89.00
21108;DHT22;10712;52.944;9.098;2022-07-01T06:32:37;16.90;89.00
21108;DHT22;10712;52.944;9.098;2022-07-01T06:35:04;16.90;88.60
21108;DHT22;10712;52.944;9.098;2022-07-01T06:37:30;16.90;88.50
21108;DHT22;10712;52.944;9.098;2022-07-01T06:40:00;16.90;88.50
21108;DHT22;10712;52.944;9.098;2022-07-01T06:42:26;16.90;87.90
21108;DHT22;10712;52.944;9.098;2022-07-01T06:44:52;16.80;87.80
21108;DHT22;10712;52.944;9.098;2022-07-01T06:47:18;16.80;87.70
21108;DHT22;10712;52.944;9.098;2022-07-01T06:49:44;16.80;87.70
21108;DHT22;10712;52.944;9.098;2022-07-01T06:52:10;16.70;88.00
21108;DHT22;10712;52.944;9.098;2022-07-01T06:54:36;16.80;88.30
21108;DHT22;10712;52.944;9.098;2022-07-01T06:57:04;16.80;88.10
21108;DHT22;10712;52.944;9.098;2022-07-01T06:59:31;16.70;88.20
21108;DHT22;10712;52.944;9.098;2022-07-01T07:01:57;16.70;88.20
21108;DHT22;10712;52.944;9.098;2022-07-01T07:04:23;16.70;88.10
21108;DHT22;10712;52.944;9.098;2022-07-01T07:06:49;16.70;88.30
21108;DHT22;10712;52.944;9.098;2022-07-01T07:09:15;16.60;88.40
21108;DHT22;10712;52.944;9.098;2022-07-01T07:11:41;16.60;88.60
21108;DHT22;10712;52.944;9.098;2022-07-01T07:14:07;16.60;88.90
21108;DHT22;10712;52.944;9.098;2022-07-01T07:16:32;16.60;89.10
21108;DHT22;10712;52.944;9.098;2022-07-01T07:18:58;16.60;89.00
21108;DHT22;10712;52.944;9.098;2022-07-01T07:21:24;16.60;89.10
21108;DHT22;10712;52.944;9.098;2022-07-01T07:23:50;16.70;89.20
21108;DHT22;10712;52.944;9.098;2022-07-01T07:26:16;16.70;89.20
21108;DHT22;10712;52.944;9.098;2022-07-01T07:28:42;16.80;89.00
21108;DHT22;10712;52.944;9.098;2022-07-01T07:31:08;16.80;88.80
21108;DHT22;10712;52.944;9.098;2022-07-01T07:33:34;16.80;88.80
21108;DHT22;10712;52.944;9.098;2022-07-01T07:36:00;16.70;88.20
21108;DHT22;10712;52.944;9.098;2022-07-01T07:38:26;16.70;88.30
21108;DHT22;10712;52.944;9.098;2022-07-01T07:40:52;16.60;88.40
21108;DHT22;10712;52.944;9.098;2022-07-01T07:43:18;16.60;88.50
21108;DHT22;10712;52.944;9.098;2022-07-01T07:45:44;16.60;88.40
21108;DHT22;10712;52.944;9.098;2022-07-01T07:48:10;16.70;88.50
21108;DHT22;10712;52.944;9.098;2022-07-01T07:50:36;16.70;88.60
21108;DHT22;10712;52.944;9.098;2022-07-01T07:53:02;16.70;88.50
21108;DHT22;10712;52.944;9.098;2022-07-01T07:55:28;16.70;88.60
21108;DHT22;10712;52.944;9.098;2022-07-01T07:57:54;16.80;88.60
21108;DHT22;10712;52.944;9.098;2022-07-01T08:00:21;16.80;88.60
21108;DHT22;10712;52.944;9.098;2022-07-01T08:02:47;16.80;88.40
21108;DHT22;10712;52.944;9.098;2022-07-01T08:05:13;16.80;88.30
21108;DHT22;10712;52.944;9.098;2022-07-01T08:07:40;16.70;88.40
21108;DHT22;10712;52.944;9.098;2022-07-01T08:10:11;16.70;88.50
21108;DHT22;10712;52.944;9.098;2022-07-01T08:12:38;16.70;88.80
21108;DHT22;10712;52.944;9.098;2022-07-01T08:15:05;16.60;89.10
21108;DHT22;10712;52.944;9.098;2022-07-01T08:17:32;16.60;88.90
21108;DHT22;10712;52.944;9.098;2022-07-01T08:19:58;16.60;89.00
21108;DHT22;10712;52.944;9.098;2022-07-01T08:22:24;16.60;89.00
21108;DHT22;10712;52.944;9.098;2022-07-01T08:24:50;16.70;88.90
21108;DHT22;10712;52.944;9.098;2022-07-01T08:27:16;16.60;88.50
21108;DHT22;10712;52.944;9.098;2022-07-01T08:29:42;16.60;88.60
21108;DHT22;10712;52.944;9.098;2022-07-01T08:32:08;16.60;88.40
21108;DHT22;10712;52.944;9.098;2022-07-01T08:34:35;16.60;88.50
21108;DHT22;10712;52.944;9.098;2022-07-01T08:37:04;16.70;88.40
21108;DHT22;10712;52.944;9.098;2022-07-01T08:39:30;16.70;88.20
21108;DHT22;10712;52.944;9.098;2022-07-01T08:41:57;16.70;88.10
21108;DHT22;10712;52.944;9.098;2022-07-01T08:44:23;16.70;88.20
21108;DHT22;10712;52.944;9.098;2022-07-01T08:46:50;16.70;88.40
21108;DHT22;10712;52.944;9.098;2022-07-01T08:49:16;16.70;88.70
21108;DHT22;10712;52.944;9.098;2022-07-01T08:51:43;16.70;88.70
21108;DHT22;10712;52.944;9.098;2022-07-01T08:54:09;16.70;88.60
21108;DHT22;10712;52.944;9.098;2022-07-01T08:56:35;16.70;88.70
21108;DHT22;10712;52.944;9.098;2022-07-01T08:59:07;16.70;88.50
21108;DHT22;10712;52.944;9.098;2022-07-01T09:01:35;16.60;88.50
21108;DHT22;10712;52.944;9.098;2022-07-01T09:04:18;16.70;87.90
21108;DHT22;10712;52.944;9.098;2022-07-01T09:06:46;16.70;87.50
21108;DHT22;10712;52.944;9.098;2022-07-01T09:09:18;16.60;87.60
21108;DHT22;10712;52.944;9.098;2022-07-01T09:11:46;16.60;87.80
21108;DHT22;10712;52.944;9.098;2022-07-01T09:14:14;16.60;88.00
21108;DHT22;10712;52.944;9.098;2022-07-01T09:16:45;16.60;88.00
21108;DHT22;10712;52.944;9.098;2022-07-01T09:19:15;16.60;88.30
21108;DHT22;10712;52.944;9.098;2022-07-01T09:21:42;16.60;88.60
21108;DHT22;10712;52.944;9.098;2022-07-01T09:24:24;16.70;88.60
21108;DHT22;10712;52.944;9.098;2022-07-01T09:27:05;16.70;88.40
21108;DHT22;10712;52.944;9.098;2022-07-01T09:29:48;16.70;88.40
21108;DHT22;10712;52.944;9.098;2022-07-01T09:32:20;16.70;88.50
21108;DHT22;10712;52.944;9.098;2022-07-01T09:34:49;16.70;87.80
21108;DHT22;10712;52.944;9.098;2022-07-01T09:37:21;16.70;87.90
21108;DHT22;10712;52.944;9.098;2022-07-01T09:39:50;16.80;88.30
21108;DHT22;10712;52.944;9.098;2022-07-01T09:42:19;16.80;88.30
21108;DHT22;10712;52.944;9.098;2022-07-01T09:45:05;16.80;88.50
21108;DHT22;10712;52.944;9.098;2022-07-01T09:47:35;16.80;88.50
21108;DHT22;10712;52.944;9.098;2022-07-01T09:50:05;16.80;88.50
21108;DHT22;10712;52.944;9.098;2022-07-01T09:52:33;16.90;88.60
21108;DHT22;10712;52.944;9.098;2022-07-01T09:54:59;16.90;88.20
21108;DHT22;10712;52.944;9.098;2022-07-01T09:57:26;16.90;88.30
21108;DHT22;10712;52.944;9.098;2022-07-01T09:59:52;16.90;87.90
21108;DHT22;10712;52.944;9.098;2022-07-01T10:02:19;16.90;88.00
21108;DHT22;10712;52.944;9.098;2022-07-01T10:04:56;16.90;88.10
21108;DHT22;10712;52.944;9.098;2022-07-01T10:13:27;16.90;86.50
21108;DHT22;10712;52.944;9.098;2022-07-01T10:15:57;16.90;86.70
21108;DHT22;10712;52.944;9.098;2022-07-01T10:18:25;16.80;86.80
21108;DHT22;10712;52.944;9.098;2022-07-01T10:20:53;16.80;86.80
21108;DHT22;10712;52.944;9.098;2022-07-01T10:23:22;16.80;86.40
21108;DHT22;10712;52.944;9.098;2022-07-01T10:25:51;16.80;86.40
21108;DHT22;10712;52.944;9.098;2022-07-01T10:31:02;16.90;86.20
21108;DHT22;10712;52.944;9.098;2022-07-01T10:33:56;16.90;86.10
21108;DHT22;10712;52.944;9.098;2022-07-01T10:41:27;17.00;86.50
21108;DHT22;10712;52.944;9.098;2022-07-01T10:43:55;17.00;86.20
21108;DHT22;10712;52.944;9.098;2022-07-01T10:49:14;17.00;86.60
21108;DHT22;10712;52.944;9.098;2022-07-01T10:52:03;17.00;86.50
21108;DHT22;10712;52.944;9.098;2022-07-01T10:59:55;17.10;86.20
21108;DHT22;10712;52.944;9.098;2022-07-01T11:02:27;17.20;86.10
21108;DHT22;10712;52.944;9.098;2022-07-01T11:04:59;17.30;86.00
21108;DHT22;10712;52.944;9.098;2022-07-01T11:07:28;17.40;85.90
21108;DHT22;10712;52.944;9.098;2022-07-01T11:09:57;17.40;85.60
21108;DHT22;10712;52.944;9.098;2022-07-01T11:12:24;17.50;85.40
21108;DHT22;10712;52.944;9.098;2022-07-01T11:14:50;17.50;85.40
21108;DHT22;10712;52.944;9.098;2022-07-01T11:17:19;17.60;85.30
21108;DHT22;10712;52.944;9.098;2022-07-01T11:19:50;17.70;84.90
21108;DHT22;10712;52.944;9.098;2022-07-01T11:22:18;17.70;84.00
21108;DHT22;10712;52.944;9.098;2022-07-01T11:24:45;17.80;83.00
21108;DHT22;10712;52.944;9.098;2022-07-01T11:27:11;17.80;82.90
21108;DHT22;10712;52.944;9.098;2022-07-01T11:29:36;17.80;82.50
21108;DHT22;10712;52.944;9.098;2022-07-01T11:32:03;17.80;82.70
21108;DHT22;10712;52.944;9.098;2022-07-01T11:34:30;17.80;82.30
21108;DHT22;10712;52.944;9.098;2022-07-01T11:36:57;17.90;81.40
21108;DHT22;10712;52.944;9.098;2022-07-01T11:39:42;17.90;81.70
21108;DHT22;10712;52.944;9.098;2022-07-01T11:42:10;18.00;81.40
21108;DHT22;10712;52.944;9.098;2022-07-01T11:44:42;18.00;81.50
21108;DHT22;10712;52.944;9.098;2022-07-01T11:47:22;18.10;81.50
21108;DHT22;10712;52.944;9.098;2022-07-01T11:49:50;18.10;81.60
21108;DHT22;10712;52.944;9.098;2022-07-01T11:52:17;18.20;82.10
21108;DHT22;10712;52.944;9.098;2022-07-01T11:54:47;18.30;81.90
21108;DHT22;10712;52.944;9.098;2022-07-01T11:57:17;18.40;80.40
21108;DHT22;10712;52.944;9.098;2022-07-01T11:59:45;18.40;79.20
21108;DHT22;10712;52.944;9.098;2022-07-01T12:02:13;18.50;78.40
21108;DHT22;10712;52.944;9.098;2022-07-01T12:04:41;18.50;77.30
21108;DHT22;10712;52.944;9.098;2022-07-01T12:07:09;18.50;77.80
21108;DHT22;10712;52.944;9.098;2022-07-01T12:09:36;18.60;77.60
21108;DHT22;10712;52.944;9.098;2022-07-01T12:12:03;18.60;77.10
21108;DHT22;10712;52.944;9.098;2022-07-01T12:14:35;18.60;75.10
21108;DHT22;10712;52.944;9.098;2022-07-01T12:17:05;18.50;75.30
21108;DHT22;10712;52.944;9.098;2022-07-01T12:19:42;18.50;75.60
21108;DHT22;10712;52.944;9.098;2022-07-01T12:22:11;18.60;75.70
21108;DHT22;10712;52.944;9.098;2022-07-01T12:24:41;18.60;75.60
21108;DHT22;10712;52.944;9.098;2022-07-01T12:27:08;18.60;75.30
21108;DHT22;10712;52.944;9.098;2022-07-01T12:32:21;18.70;74.50
21108;DHT22;10712;52.944;9.098;2022-07-01T12:35:02;18.70;73.70
21108;DHT22;10712;52.944;9.098;2022-07-01T12:37:35;18.60;73.00
21108;DHT22;10712;52.944;9.098;2022-07-01T12:40:19;18.70;73.70
21108;DHT22;10712;52.944;9.098;2022-07-01T12:42:46;18.70;74.20
21108;DHT22;10712;52.944;9.098;2022-07-01T12:45:14;18.70;74.50
21108;DHT22;10712;52.944;9.098;2022-07-01T12:47:49;18.70;74.60
21108;DHT22;10712;52.944;9.098;2022-07-01T12:50:23;18.80;74.10
21108;DHT22;10712;52.944;9.098;2022-07-01T12:53:03;18.70;73.70
21108;DHT22;10712;52.944;9.098;2022-07-01T12:55:34;18.70;74.00
21108;DHT22;10712;52.944;9.098;2022-07-01T12:58:06;18.70;74.10
21108;DHT22;10712;52.944;9.098;2022-07-01T13:00:35;18.70;74.10
21108;DHT22;10712;52.944;9.098;2022-07-01T13:03:02;18.70;73.90
21108;DHT22;10712;52.944;9.098;2022-07-01T13:05:31;18.70;73.90
21108;DHT22;10712;52.944;9.098;2022-07-01T13:07:58;18.70;74.10
21108;DHT22;10712;52.944;9.098;2022-07-01T13:10:25;18.70;74.10
21108;DHT22;10712;52.944;9.098;2022-07-01T13:12:51;18.70;73.30
21108;DHT22;10712;52.944;9.098;2022-07-01T13:15:18;18.70;72.10
21108;DHT22;10712;52.944;9.098;2022-07-01T13:17:45;18.70;72.70
21108;DHT22;10712;52.944;9.098;2022-07-01T13:20:13;18.70;73.20
21108;DHT22;10712;52.944;9.098;2022-07-01T13:22:40;18.80;71.70
21108;DHT22;10712;52.944;9.098;2022-07-01T13:25:07;18.80;71.40
21108;DHT22;10712;52.944;9.098;2022-07-01T13:27:33;18.80;71.10
21108;DHT22;10712;52.944;9.098;2022-07-01T13:29:59;18.80;71.50
21108;DHT22;10712;52.944;9.098;2022-07-01T13:32:29;18.80;71.00
21108;DHT22;10712;52.944;9.098;2022-07-01T13:34:55;18.90;71.30
21108;DHT22;10712;52.944;9.098;2022-07-01T13:37:21;18.90;70.70
21108;DHT22;10712;52.944;9.098;2022-07-01T13:39:47;18.90;71.30
21108;DHT22;10712;52.944;9.098;2022-07-01T13:42:13;18.90;71.80
21108;DHT22;10712;52.944;9.098;2022-07-01T13:44:39;19.00;70.70
21108;DHT22;10712;52.944;9.098;2022-07-01T13:47:05;19.00;70.70
21108;DHT22;10712;52.944;9.098;2022-07-01T13:49:35;18.90;70.60
21108;DHT22;10712;52.944;9.098;2022-07-01T13:52:03;19.00;71.20
21108;DHT22;10712;52.944;9.098;2022-07-01T13:54:29;19.00;70.90
21108;DHT22;10712;52.944;9.098;2022-07-01T13:56:55;19.00;70.20
21108;DHT22;10712;52.944;9.098;2022-07-01T13:59:21;19.00;70.10
21108;DHT22;10712;52.944;9.098;2022-07-01T14:01:47;18.90;70.70
21108;DHT22;10712;52.944;9.098;2022-07-01T14:04:13;19.00;70.80
21108;DHT22;10712;52.944;9.098;2022-07-01T14:06:39;18.90;70.40
21108;DHT22;10712;52.944;9.098;2022-07-01T14:09:05;18.90;70.60
21108;DHT22;10712;52.944;9.098;2022-07-01T14:11:31;19.00;70.50
21108;DHT22;10712;52.944;9.098;2022-07-01T14:13:57;19.00;70.40
21108;DHT22;10712;52.944;9.098;2022-07-01T14:16:22;19.00;70.90
21108;DHT22;10712;52.944;9.098;2022-07-01T14:18:48;19.10;70.70
21108;DHT22;10712;52.944;9.098;2022-07-01T14:21:18;19.20;70.90
21108;DHT22;10712;52.944;9.098;2022-07-01T14:23:44;19.20;69.40
21108;DHT22;10712;52.944;9.098;2022-07-01T14:26:09;19.30;70.30
21108;DHT22;10712;52.944;9.098;2022-07-01T14:28:35;19.30;70.60
21108;DHT22;10712;52.944;9.098;2022-07-01T14:31:01;19.50;69.60
21108;DHT22;10712;52.944;9.098;2022-07-01T14:33:27;19.60;70.80
21108;DHT22;10712;52.944;9.098;2022-07-01T14:35:53;19.70;70.10
21108;DHT22;10712;52.944;9.098;2022-07-01T14:38:19;19.80;67.40
21108;DHT22;10712;52.944;9.098;2022-07-01T14:40:45;19.90;66.50
21108;DHT22;10712;52.944;9.098;2022-07-01T14:43:11;19.90;66.10
21108;DHT22;10712;52.944;9.098;2022-07-01T14:45:37;19.90;65.10
21108;DHT22;10712;52.944;9.098;2022-07-01T14:48:03;19.90;65.40
21108;DHT22;10712;52.944;9.098;2022-07-01T14:50:29;19.80;65.70
21108;DHT22;10712;52.944;9.098;2022-07-01T14:52:55;19.90;66.70
21108;DHT22;10712;52.944;9.098;2022-07-01T14:55:21;20.00;67.00
21108;DHT22;10712;52.944;9.098;2022-07-01T14:57:47;20.10;66.30
21108;DHT22;10712;52.944;9.098;2022-07-01T15:00:13;20.10;65.70
21108;DHT22;10712;52.944;9.098;2022-07-01T15:02:40;20.20;66.10
21108;DHT22;10712;52.944;9.098;2022-07-01T15:05:06;20.20;64.00
21108;DHT22;10712;52.944;9.098;2022-07-01T15:07:32;20.10;64.90
21108;DHT22;10712;52.944;9.098;2022-07-01T15:09:58;20.10;65.50
21108;DHT22;10712;52.944;9.098;2022-07-01T15:12:27;20.00;64.40
21108;DHT22;10712;52.944;9.098;2022-07-01T15:14:54;20.00;65.80
21108;DHT22;10712;52.944;9.098;2022-07-01T15:17:20;20.00;66.60
21108;DHT22;10712;52.944;9.098;2022-07-01T15:19:46;20.00;66.70
21108;DHT22;10712;52.944;9.098;2022-07-01T15:22:12;20.10;65.60
21108;DHT22;10712;52.944;9.098;2022-07-01T15:24:38;20.10;65.50
21108;DHT22;10712;52.944;9.098;2022-07-01T15:27:05;20.10;64.70
21108;DHT22;10712;52.944;9.098;2022-07-01T15:29:32;20.10;65.30
21108;DHT22;10712;52.944;9.098;2022-07-01T15:31:59;20.10;65.50
21108;DHT22;10712;52.944;9.098;2022-07-01T15:34:25;20.10;65.50
21108;DHT22;10712;52.944;9.098;2022-07-01T15:36:51;20.10;65.50
21108;DHT22;10712;52.944;9.098;2022-07-01T15:39:17;20.00;65.50
21108;DHT22;10712;52.944;9.098;2022-07-01T15:41:44;20.00;65.70
21108;DHT22;10712;52.944;9.098;2022-07-01T15:44:11;20.00;65.20
21108;DHT22;10712;52.944;9.098;2022-07-01T15:46:38;20.00;66.00
21108;DHT22;10712;52.944;9.098;2022-07-01T15:49:04;20.00;66.00
21108;DHT22;10712;52.944;9.098;2022-07-01T15:51:33;20.10;65.60
21108;DHT22;10712;52.944;9.098;2022-07-01T15:54:00;20.10;65.80
21108;DHT22;10712;52.944;9.098;2022-07-01T15:56:28;20.20;65.80